createdAt,value
2022-09-28T00:00:36.843Z,24.45
2022-09-28T00:03:03.249Z,24.45
2022-09-28T00:05:29.526Z,24.42
2022-09-28T00:07:55.891Z,24.43
2022-09-28T00:10:22.228Z,24.43
2022-09-28T00:12:48.577Z,24.44
2022-09-28T00:15:14.913Z,24.43
2022-09-28T00:17:41.257Z,24.42
2022-09-28T00:20:07.626Z,24.43
2022-09-28T00:22:33.976Z,24.42
2022-09-28T00:25:00.314Z,24.41
2022-09-28T00:27:26.678Z,24.44
2022-09-28T00:29:53.011Z,24.41
2022-09-28T00:32:19.426Z,24.41
2022-09-28T00:34:45.773Z,24.41
2022-09-28T00:37:12.104Z,24.39
2022-09-28T00:39:38.474Z,24.42
2022-09-28T00:42:04.820Z,24.40
2022-09-28T00:44:31.164Z,24.39
2022-09-28T00:46:57.544Z,24.39
2022-09-28T00:49:23.887Z,24.39
2022-09-28T00:51:50.227Z,24.36
2022-09-28T00:54:16.590Z,24.36
2022-09-28T00:56:42.929Z,24.38
2022-09-28T00:59:09.358Z,24.38
2022-09-28T01:01:35.654Z,24.35
2022-09-28T01:04:01.992Z,24.36
2022-09-28T01:06:28.344Z,24.38
2022-09-28T01:08:54.692Z,24.35
2022-09-28T01:11:21.037Z,24.34
2022-09-28T01:13:47.437Z,24.34
2022-09-28T01:16:13.859Z,24.34
2022-09-28T01:18:40.123Z,24.34
2022-09-28T01:21:06.471Z,24.34
2022-09-28T01:23:32.803Z,24.33
2022-09-28T01:25:59.140Z,24.33
2022-09-28T01:28:25.492Z,24.34
2022-09-28T01:30:51.843Z,24.33
2022-09-28T01:33:18.184Z,24.32
2022-09-28T01:35:44.557Z,24.33
2022-09-28T01:38:10.926Z,24.33
2022-09-28T01:40:37.326Z,24.32
2022-09-28T01:43:03.600Z,24.32
2022-09-28T01:45:29.950Z,24.32
2022-09-28T01:47:56.282Z,24.32
2022-09-28T01:50:22.635Z,24.30
2022-09-28T01:52:48.970Z,24.29
2022-09-28T01:55:15.308Z,24.30
2022-09-28T01:57:41.646Z,24.29
2022-09-28T02:00:07.990Z,24.30
2022-09-28T02:02:34.407Z,24.29
2022-09-28T02:05:02.688Z,24.32
2022-09-28T02:07:27.025Z,24.32
2022-09-28T02:09:53.366Z,24.29
2022-09-28T02:12:19.731Z,24.31
2022-09-28T02:14:46.075Z,24.28
2022-09-28T02:17:12.422Z,24.28
2022-09-28T02:19:38.760Z,24.29
2022-09-28T02:22:05.101Z,24.25
2022-09-28T02:24:31.488Z,24.20
2022-09-28T02:26:57.822Z,24.23
2022-09-28T02:29:24.162Z,24.25
2022-09-28T02:31:50.541Z,24.25
2022-09-28T02:34:19.255Z,24.23
2022-09-28T02:36:45.593Z,24.20
2022-09-28T02:39:11.926Z,24.21
2022-09-28T02:41:38.275Z,24.20
2022-09-28T02:44:04.615Z,24.21
2022-09-28T02:49:21.341Z,24.19
2022-09-28T02:51:36.197Z,24.19
2022-09-28T02:54:02.527Z,24.20
2022-09-28T02:56:28.879Z,24.18
2022-09-28T02:58:55.219Z,24.18
2022-09-28T03:01:21.598Z,24.16
2022-09-28T03:03:47.897Z,24.17
2022-09-28T03:06:14.243Z,24.16
2022-09-28T03:08:40.611Z,24.17
2022-09-28T03:11:06.952Z,24.16
2022-09-28T03:13:33.296Z,24.15
2022-09-28T03:15:59.689Z,24.16
2022-09-28T03:18:25.978Z,24.13
2022-09-28T03:20:52.328Z,24.11
2022-09-28T03:23:25.845Z,24.10
2022-09-28T03:25:45.048Z,24.12
2022-09-28T03:28:11.344Z,24.13
2022-09-28T03:30:37.696Z,24.11
2022-09-28T03:33:04.039Z,24.13
2022-09-28T03:35:30.392Z,24.11
2022-09-28T03:37:56.817Z,24.11
2022-09-28T03:40:23.155Z,24.08
2022-09-28T03:42:49.416Z,24.08
2022-09-28T03:45:15.760Z,24.08
2022-09-28T03:47:42.093Z,24.05
2022-09-28T03:50:08.433Z,24.08
2022-09-28T03:52:34.773Z,24.05
2022-09-28T03:55:01.108Z,24.09
2022-09-28T03:57:27.450Z,24.03
2022-09-28T03:59:53.799Z,24.06
2022-09-28T04:02:20.170Z,24.02
2022-09-28T04:04:46.470Z,24.04
2022-09-28T04:07:12.809Z,24.03
2022-09-28T04:09:39.146Z,24.05
2022-09-28T04:12:05.493Z,24.06
2022-09-28T04:14:31.834Z,24.01
2022-09-28T04:16:58.173Z,24.04
2022-09-28T04:19:24.517Z,24.03
2022-09-28T04:21:50.859Z,24.06
2022-09-28T04:24:17.202Z,24.04
2022-09-28T04:26:43.541Z,24.00
2022-09-28T04:29:09.891Z,24.04
2022-09-28T04:31:36.274Z,24.03
2022-09-28T04:34:02.572Z,24.04
2022-09-28T04:36:28.917Z,24.03
2022-09-28T04:38:55.262Z,24.02
2022-09-28T04:41:21.597Z,24.04
2022-09-28T04:43:47.947Z,24.01
2022-09-28T04:46:14.311Z,24.04
2022-09-28T04:48:40.622Z,24.04
2022-09-28T04:51:06.953Z,24.03
2022-09-28T04:53:33.296Z,24.09
2022-09-28T04:55:59.628Z,24.10
2022-09-28T04:58:25.982Z,24.14
2022-09-28T05:00:52.357Z,24.14
2022-09-28T05:03:18.663Z,24.23
2022-09-28T05:05:44.996Z,24.24
2022-09-28T05:08:11.336Z,24.26
2022-09-28T05:10:37.795Z,24.23
2022-09-28T05:13:04.146Z,24.26
2022-09-28T05:15:30.472Z,24.30
2022-09-28T05:17:56.842Z,24.28
2022-09-28T05:20:23.187Z,24.32
2022-09-28T05:22:49.535Z,24.33
2022-09-28T05:25:15.872Z,24.39
2022-09-28T05:27:42.217Z,24.36
2022-09-28T05:30:08.545Z,24.53
2022-09-28T05:32:34.920Z,24.53
2022-09-28T05:35:01.264Z,24.40
2022-09-28T05:37:27.629Z,24.38
2022-09-28T05:39:53.983Z,24.36
2022-09-28T05:42:20.353Z,24.48
2022-09-28T05:44:46.696Z,24.41
2022-09-28T05:47:13.032Z,24.42
2022-09-28T05:49:39.364Z,24.45
2022-09-28T05:52:05.697Z,24.48
2022-09-28T05:54:32.048Z,24.54
2022-09-28T05:56:58.371Z,24.51
2022-09-28T05:59:24.712Z,24.56
2022-09-28T06:01:52.000Z,24.55
2022-09-28T06:04:17.670Z,24.61
2022-09-28T06:06:43.839Z,24.60
2022-09-28T06:09:10.177Z,24.72
2022-09-28T06:11:36.528Z,24.79
2022-09-28T06:14:02.877Z,24.75
2022-09-28T06:16:29.262Z,24.71
2022-09-28T06:18:55.547Z,24.76
2022-09-28T06:21:21.879Z,24.84
2022-09-28T06:23:49.418Z,24.71
2022-09-28T06:26:14.619Z,24.73
2022-09-28T06:28:40.985Z,24.85
2022-09-28T06:31:07.404Z,24.82
2022-09-28T06:33:33.650Z,24.79
2022-09-28T06:36:00.006Z,24.75
2022-09-28T06:38:26.411Z,24.77
2022-09-28T06:40:52.788Z,24.92
2022-09-28T06:43:19.097Z,25.01
2022-09-28T06:45:45.466Z,25.23
2022-09-28T06:48:11.798Z,25.22
2022-09-28T06:50:38.132Z,24.97
2022-09-28T06:53:04.543Z,24.85
2022-09-28T06:55:32.077Z,24.95
2022-09-28T06:57:57.258Z,25.02
2022-09-28T07:00:23.591Z,25.03
2022-09-28T07:02:49.980Z,24.97
2022-09-28T07:05:16.316Z,25.05
2022-09-28T07:07:42.667Z,24.99
2022-09-28T07:10:09.014Z,25.02
2022-09-28T07:12:35.363Z,25.01
2022-09-28T07:15:01.717Z,24.92
2022-09-28T07:17:28.129Z,24.97
2022-09-28T07:19:54.431Z,24.91
2022-09-28T07:22:31.775Z,24.94
2022-09-28T07:24:47.151Z,24.90
2022-09-28T07:27:13.505Z,24.91
2022-09-28T07:29:39.851Z,24.91
2022-09-28T07:32:06.194Z,24.86
2022-09-28T07:34:32.529Z,24.87
2022-09-28T07:36:58.926Z,24.86
2022-09-28T07:39:25.270Z,24.86
2022-09-28T07:41:54.390Z,24.87
2022-09-28T07:44:18.022Z,24.87
2022-09-28T07:46:44.316Z,24.86
2022-09-28T07:49:12.440Z,24.88
2022-09-28T07:51:38.269Z,24.90
2022-09-28T07:54:03.399Z,24.90
2022-09-28T07:56:29.753Z,24.98
2022-09-28T07:58:56.092Z,25.05
2022-09-28T08:01:24.462Z,25.13
2022-09-28T08:03:48.796Z,25.18
2022-09-28T08:06:15.140Z,25.16
2022-09-28T08:08:41.513Z,25.35
2022-09-28T08:11:07.869Z,25.38
2022-09-28T08:13:34.213Z,25.42
2022-09-28T08:16:00.556Z,25.53
2022-09-28T08:18:26.893Z,25.42
2022-09-28T08:20:53.250Z,25.51
2022-09-28T08:23:19.579Z,25.48
2022-09-28T08:25:45.919Z,25.48
2022-09-28T08:28:12.266Z,25.36
2022-09-28T08:30:38.712Z,25.27
2022-09-28T08:33:04.982Z,25.48
2022-09-28T08:35:31.326Z,26.04
2022-09-28T08:37:57.671Z,26.31
2022-09-28T08:40:24.071Z,26.39
2022-09-28T08:42:50.393Z,26.49
2022-09-28T08:45:16.741Z,26.67
2022-09-28T08:47:43.071Z,26.65
2022-09-28T08:50:09.515Z,26.62
2022-09-28T08:52:35.790Z,26.57
2022-09-28T08:55:02.150Z,26.51
2022-09-28T08:57:28.482Z,26.58
2022-09-28T08:59:54.826Z,26.60
2022-09-28T09:02:21.249Z,26.60
2022-09-28T09:04:47.507Z,26.65
2022-09-28T09:07:13.842Z,26.58
2022-09-28T09:09:40.193Z,26.63
2022-09-28T09:12:06.530Z,26.60
2022-09-28T09:14:32.882Z,26.61
2022-09-28T09:17:00.549Z,26.56
2022-09-28T09:19:25.611Z,26.69
2022-09-28T09:21:51.958Z,26.73
2022-09-28T09:24:18.361Z,26.71
2022-09-28T09:26:44.661Z,26.85
2022-09-28T09:29:11.043Z,26.84
2022-09-28T09:31:37.381Z,26.75
2022-09-28T09:34:03.741Z,26.76
2022-09-28T09:36:30.082Z,27.04
2022-09-28T09:38:56.444Z,27.22
2022-09-28T09:41:22.793Z,27.12
2022-09-28T09:43:49.133Z,26.97
2022-09-28T09:46:15.497Z,26.96
2022-09-28T09:48:41.823Z,26.99
2022-09-28T09:51:08.157Z,27.00
2022-09-28T09:53:37.705Z,27.09
2022-09-28T09:56:00.833Z,27.08
2022-09-28T09:58:27.181Z,27.08
2022-09-28T10:00:53.560Z,27.16
2022-09-28T10:03:19.862Z,27.16
2022-09-28T10:05:46.242Z,27.17
2022-09-28T10:08:12.608Z,27.08
2022-09-28T10:10:38.971Z,27.10
2022-09-28T10:13:05.319Z,27.11
2022-09-28T10:15:31.652Z,27.09
2022-09-28T10:17:59.020Z,27.02
2022-09-28T10:20:25.712Z,26.95
2022-09-28T10:22:50.728Z,27.02
2022-09-28T10:25:17.111Z,26.91
2022-09-28T10:27:43.492Z,26.99
2022-09-28T10:30:09.835Z,27.06
2022-09-28T10:32:36.192Z,27.09
2022-09-28T10:35:02.535Z,27.01
2022-09-28T10:37:28.956Z,26.99
2022-09-28T10:39:55.300Z,26.99
2022-09-28T10:42:21.726Z,27.05
2022-09-28T10:44:48.037Z,27.07
2022-09-28T10:47:14.381Z,27.07
2022-09-28T10:49:45.875Z,27.06
2022-09-28T10:52:07.070Z,27.14
2022-09-28T10:54:33.420Z,27.16
2022-09-28T10:56:59.782Z,27.15
2022-09-28T10:59:26.116Z,27.25
2022-09-28T11:01:52.505Z,27.34
2022-09-28T11:04:19.012Z,27.35
2022-09-28T11:06:45.367Z,27.35
2022-09-28T11:09:11.600Z,27.36
2022-09-28T11:11:37.941Z,27.43
2022-09-28T11:14:04.295Z,27.41
2022-09-28T11:16:30.703Z,27.41
2022-09-28T11:18:56.989Z,27.42
2022-09-28T11:21:23.331Z,27.34
2022-09-28T11:23:49.709Z,27.34
2022-09-28T11:26:18.605Z,27.35
2022-09-28T11:28:42.455Z,27.40
2022-09-28T11:31:08.895Z,27.36
2022-09-28T11:33:35.203Z,27.40
2022-09-28T11:36:01.550Z,27.38
2022-09-28T11:38:27.884Z,27.41
2022-09-28T11:40:54.385Z,27.44
2022-09-28T11:43:20.597Z,27.37
2022-09-28T11:45:46.971Z,27.34
2022-09-28T11:48:13.307Z,27.27
2022-09-28T11:50:39.667Z,27.30
2022-09-28T11:53:06.018Z,27.24
2022-09-28T11:55:32.372Z,27.26
2022-09-28T11:57:58.761Z,27.24
2022-09-28T12:00:25.120Z,27.16
2022-09-28T12:02:51.655Z,27.15
2022-09-28T12:05:20.847Z,27.21
2022-09-28T12:07:44.211Z,27.24
2022-09-28T12:10:10.558Z,27.22
2022-09-28T12:12:36.915Z,27.22
2022-09-28T12:15:03.286Z,27.21
2022-09-28T12:17:29.661Z,27.19
2022-09-28T12:19:55.985Z,27.23
2022-09-28T12:22:22.342Z,27.23
2022-09-28T12:24:48.719Z,27.19
2022-09-28T12:27:15.061Z,27.25
2022-09-28T12:29:41.410Z,27.23
2022-09-28T12:32:07.757Z,27.25
2022-09-28T12:34:34.105Z,27.29
2022-09-28T12:37:00.446Z,27.32
2022-09-28T12:39:40.953Z,27.25
2022-09-28T12:41:53.139Z,27.23
2022-09-28T12:44:19.497Z,27.24
2022-09-28T12:46:45.980Z,27.27
2022-09-28T12:51:38.590Z,27.23
2022-09-28T12:54:05.072Z,27.25
2022-09-28T12:56:31.499Z,27.23
2022-09-28T12:58:57.857Z,27.25
2022-09-28T13:01:24.250Z,27.25
2022-09-28T13:03:50.554Z,27.24
2022-09-28T13:06:16.894Z,27.28
2022-09-28T13:08:43.239Z,27.29
2022-09-28T13:11:09.586Z,27.27
2022-09-28T13:13:35.943Z,27.26
2022-09-28T13:16:02.332Z,27.26
2022-09-28T13:18:28.644Z,27.27
2022-09-28T13:20:56.417Z,27.21
2022-09-28T13:23:21.336Z,27.25
2022-09-28T13:25:47.674Z,27.25
2022-09-28T13:28:14.046Z,27.24
2022-09-28T13:30:42.220Z,27.24
2022-09-28T13:33:06.756Z,27.34
2022-09-28T13:35:33.095Z,27.52
2022-09-28T13:37:59.432Z,27.61
2022-09-28T13:40:25.802Z,27.63
2022-09-28T13:42:52.211Z,27.57
2022-09-28T13:45:18.554Z,27.44
2022-09-28T13:47:44.893Z,27.39
2022-09-28T13:50:11.377Z,27.51
2022-09-28T13:52:37.621Z,27.57
2022-09-28T13:55:03.956Z,27.60
2022-09-28T13:57:30.311Z,27.59
2022-09-28T13:59:56.655Z,27.49
2022-09-28T14:02:23.034Z,27.50
2022-09-28T14:04:49.348Z,27.42
2022-09-28T14:07:15.780Z,27.51
2022-09-28T14:09:42.077Z,27.57
2022-09-28T14:12:08.435Z,27.50
2022-09-28T14:14:34.776Z,27.53
2022-09-28T14:17:01.120Z,27.51
2022-09-28T14:19:27.459Z,27.46
2022-09-28T14:21:53.821Z,27.47
2022-09-28T14:24:20.143Z,27.43
2022-09-28T14:26:46.498Z,27.40
2022-09-28T14:29:12.871Z,27.39
2022-09-28T14:31:40.422Z,27.37
2022-09-28T14:34:05.562Z,27.32
2022-09-28T14:36:31.944Z,27.32
2022-09-28T14:38:58.281Z,27.25
2022-09-28T14:41:24.630Z,27.19
2022-09-28T14:43:50.966Z,27.11
2022-09-28T14:46:17.460Z,27.02
2022-09-28T14:48:43.711Z,26.99
2022-09-28T14:51:10.053Z,26.94
2022-09-28T14:53:36.407Z,26.95
2022-09-28T14:56:02.768Z,26.91
2022-09-28T14:58:29.099Z,26.94
2022-09-28T15:00:55.447Z,27.07
2022-09-28T15:03:21.794Z,27.11
2022-09-28T15:05:48.207Z,27.19
2022-09-28T15:08:14.550Z,27.32
2022-09-28T15:10:40.889Z,27.27
2022-09-28T15:13:07.225Z,27.31
2022-09-28T15:15:33.631Z,27.24
2022-09-28T15:17:59.943Z,27.27
2022-09-28T15:20:26.290Z,27.21
2022-09-28T15:22:52.640Z,27.23
2022-09-28T15:25:18.979Z,27.20
2022-09-28T15:27:45.310Z,27.19
2022-09-28T15:30:11.654Z,27.16
2022-09-28T15:32:37.988Z,27.20
2022-09-28T15:35:04.336Z,27.15
2022-09-28T15:37:30.672Z,27.12
2022-09-28T15:39:57.031Z,27.11
2022-09-28T15:42:24.379Z,27.13
2022-09-28T15:44:49.717Z,27.14
2022-09-28T15:47:16.057Z,27.11
2022-09-28T15:49:42.402Z,27.14
2022-09-28T15:52:08.737Z,27.09
2022-09-28T15:54:35.085Z,27.11
2022-09-28T15:57:01.464Z,27.09
2022-09-28T15:59:27.987Z,27.10
2022-09-28T16:01:54.374Z,27.12
2022-09-28T16:04:20.705Z,27.14
2022-09-28T16:06:47.037Z,27.10
2022-09-28T16:09:13.380Z,27.12
2022-09-28T16:11:39.718Z,27.10
2022-09-28T16:14:06.114Z,27.09
2022-09-28T16:16:32.416Z,27.13
2022-09-28T16:18:58.753Z,27.14
2022-09-28T16:21:25.139Z,27.12
2022-09-28T16:23:51.474Z,27.09
2022-09-28T16:26:17.819Z,27.08
2022-09-28T16:28:44.152Z,27.07
2022-09-28T16:31:10.563Z,27.08
2022-09-28T16:33:36.858Z,27.06
2022-09-28T16:36:03.227Z,27.05
2022-09-28T16:38:29.558Z,27.00
2022-09-28T16:40:55.956Z,27.04
2022-09-28T16:43:22.272Z,27.01
2022-09-28T16:45:48.628Z,27.05
2022-09-28T16:48:14.965Z,27.01
2022-09-28T16:50:41.311Z,27.00
2022-09-28T16:53:07.657Z,27.01
2022-09-28T16:55:40.412Z,27.00
2022-09-28T16:58:00.389Z,27.04
2022-09-28T17:00:26.740Z,27.00
2022-09-28T17:02:53.098Z,26.94
2022-09-28T17:05:19.413Z,26.99
2022-09-28T17:07:45.754Z,26.97
2022-09-28T17:10:12.108Z,26.98
2022-09-28T17:12:38.479Z,26.95
2022-09-28T17:15:04.817Z,26.96
2022-09-28T17:17:31.193Z,26.95
2022-09-28T17:19:57.549Z,26.93
2022-09-28T17:22:23.874Z,26.96
2022-09-28T17:24:50.218Z,26.94
2022-09-28T17:27:16.583Z,26.94
2022-09-28T17:29:42.924Z,26.92
2022-09-28T17:32:09.255Z,26.90
2022-09-28T17:34:35.619Z,26.91
2022-09-28T17:37:01.956Z,26.91
2022-09-28T17:39:28.304Z,26.90
2022-09-28T17:41:54.636Z,26.83
2022-09-28T17:44:21.153Z,26.83
2022-09-28T17:46:47.545Z,26.83
2022-09-28T17:49:13.687Z,26.89
2022-09-28T17:51:40.015Z,26.85
2022-09-28T17:54:06.362Z,26.86
2022-09-28T17:56:32.817Z,26.82
2022-09-28T17:58:59.061Z,26.83
2022-09-28T18:01:25.496Z,26.83
2022-09-28T18:03:51.748Z,26.80
2022-09-28T18:06:18.082Z,26.78
2022-09-28T18:08:44.463Z,26.76
2022-09-28T18:11:10.802Z,26.75
2022-09-28T18:13:37.211Z,26.76
2022-09-28T18:16:04.897Z,26.77
2022-09-28T18:18:29.889Z,26.75
2022-09-28T18:20:56.228Z,26.75
2022-09-28T18:23:22.573Z,26.77
2022-09-28T18:25:48.913Z,26.76
2022-09-28T18:28:15.254Z,26.73
2022-09-28T18:30:41.637Z,26.75
2022-09-28T18:33:07.933Z,26.72
2022-09-28T18:35:34.264Z,26.71
2022-09-28T18:38:00.656Z,26.73
2022-09-28T18:40:27.039Z,26.70
2022-09-28T18:42:53.344Z,26.70
2022-09-28T18:45:19.684Z,26.70
2022-09-28T18:47:46.027Z,26.69
2022-09-28T18:50:12.370Z,26.71
2022-09-28T18:52:38.712Z,26.71
2022-09-28T18:55:05.046Z,26.67
2022-09-28T18:57:31.393Z,26.71
2022-09-28T18:59:57.728Z,26.68
2022-09-28T19:02:24.148Z,26.69
2022-09-28T19:04:50.400Z,26.69
2022-09-28T19:07:16.836Z,26.67
2022-09-28T19:09:43.166Z,26.68
2022-09-28T19:12:09.509Z,26.69
2022-09-28T19:14:35.853Z,26.68
2022-09-28T19:17:02.228Z,26.66
2022-09-28T19:19:28.569Z,26.67
2022-09-28T19:21:54.945Z,26.66
2022-09-28T19:24:21.249Z,26.64
2022-09-28T19:26:47.587Z,26.65
2022-09-28T19:29:13.934Z,26.57
2022-09-28T19:31:40.272Z,26.61
2022-09-28T19:34:08.236Z,26.63
2022-09-28T19:36:32.949Z,26.65
2022-09-28T19:38:59.279Z,26.66
2022-09-28T19:41:25.674Z,26.61
2022-09-28T19:43:52.016Z,26.65
2022-09-28T19:46:18.413Z,26.65
2022-09-28T19:48:44.701Z,26.64
2022-09-28T19:51:11.048Z,26.63
2022-09-28T19:53:37.384Z,26.65
2022-09-28T19:56:03.728Z,26.63
2022-09-28T19:58:30.072Z,26.54
2022-09-28T20:00:56.421Z,26.56
2022-09-28T20:03:22.754Z,26.56
2022-09-28T20:05:49.101Z,26.53
2022-09-28T20:08:15.445Z,26.50
2022-09-28T20:10:41.783Z,26.55
2022-09-28T20:13:08.117Z,26.57
2022-09-28T20:15:34.493Z,26.49
2022-09-28T20:18:00.846Z,26.41
2022-09-28T20:20:27.187Z,26.38
2022-09-28T20:22:53.520Z,26.39
2022-09-28T20:25:19.856Z,26.38
2022-09-28T20:27:46.192Z,26.46
2022-09-28T20:30:12.530Z,26.41
2022-09-28T20:32:38.868Z,26.45
2022-09-28T20:35:05.205Z,26.41
2022-09-28T20:37:31.551Z,26.40
2022-09-28T20:39:57.888Z,26.38
2022-09-28T20:42:24.319Z,26.41
2022-09-28T20:44:50.694Z,26.42
2022-09-28T20:47:17.027Z,26.43
2022-09-28T20:49:43.364Z,26.41
2022-09-28T20:52:09.701Z,26.39
2022-09-28T20:54:36.047Z,26.43
2022-09-28T20:57:02.377Z,26.39
2022-09-28T20:59:29.685Z,26.42
2022-09-28T21:01:55.158Z,26.45
2022-09-28T21:04:21.526Z,26.49
2022-09-28T21:06:47.788Z,26.49
2022-09-28T21:09:14.132Z,26.46
2022-09-28T21:11:40.484Z,26.49
2022-09-28T21:14:06.822Z,26.51
2022-09-28T21:16:33.154Z,26.50
2022-09-28T21:18:59.506Z,26.52
2022-09-28T21:21:25.833Z,26.52
2022-09-28T21:23:52.169Z,26.50
2022-09-28T21:26:18.507Z,26.52
2022-09-28T21:28:44.856Z,26.52
2022-09-28T21:31:11.243Z,26.49
2022-09-28T21:33:37.541Z,26.51
2022-09-28T21:36:03.879Z,26.50
2022-09-28T21:38:30.218Z,26.47
2022-09-28T21:40:56.610Z,26.49
2022-09-28T21:43:22.895Z,26.51
2022-09-28T21:45:49.235Z,26.49
2022-09-28T21:48:15.583Z,26.49
2022-09-28T21:50:41.936Z,26.50
2022-09-28T21:53:08.277Z,26.51
2022-09-28T21:55:34.630Z,26.51
2022-09-28T21:58:00.974Z,26.47
2022-09-28T22:00:27.324Z,26.52
2022-09-28T22:02:53.703Z,26.49
2022-09-28T22:05:19.988Z,26.51
2022-09-28T22:07:46.334Z,26.50
2022-09-28T22:10:12.677Z,26.49
2022-09-28T22:12:39.015Z,26.48
2022-09-28T22:15:05.344Z,26.47
2022-09-28T22:17:31.727Z,26.47
2022-09-28T22:19:59.014Z,26.48
2022-09-28T22:22:28.395Z,26.46
2022-09-28T22:24:50.740Z,26.43
2022-09-28T22:27:17.082Z,26.43
2022-09-28T22:29:43.418Z,26.46
2022-09-28T22:32:09.766Z,26.43
2022-09-28T22:34:36.096Z,26.43
2022-09-28T22:37:02.451Z,26.45
2022-09-28T22:39:28.794Z,26.43
2022-09-28T22:41:55.136Z,26.43
2022-09-28T22:44:21.475Z,26.43
2022-09-28T22:46:47.888Z,26.43
2022-09-28T22:49:14.160Z,26.42
2022-09-28T22:51:40.495Z,26.42
2022-09-28T22:54:06.856Z,26.46
2022-09-28T22:56:33.200Z,26.46
2022-09-28T22:58:59.539Z,26.42
2022-09-28T23:01:25.970Z,26.45
2022-09-28T23:03:52.240Z,26.42
2022-09-28T23:06:18.583Z,26.42
2022-09-28T23:08:44.925Z,26.45
2022-09-28T23:11:11.265Z,26.46
2022-09-28T23:13:37.596Z,26.45
2022-09-28T23:16:03.980Z,26.45
2022-09-28T23:18:30.274Z,26.41
2022-09-28T23:20:56.615Z,26.46
2022-09-28T23:23:22.952Z,26.43
2022-09-28T23:25:49.295Z,26.45
2022-09-28T23:28:15.633Z,26.42
2022-09-28T23:30:41.979Z,26.41
2022-09-28T23:33:08.324Z,26.42
2022-09-28T23:35:34.663Z,26.43
2022-09-28T23:38:00.992Z,26.45
2022-09-28T23:40:27.401Z,26.43
2022-09-28T23:42:53.672Z,26.42
2022-09-28T23:45:20.037Z,26.41
2022-09-28T23:47:46.366Z,26.39
2022-09-28T23:50:12.706Z,26.39
2022-09-28T23:52:39.044Z,26.39
2022-09-28T23:55:05.381Z,26.40
2022-09-28T23:57:31.723Z,26.38
2022-09-28T23:59:58.064Z,26.40
